sensor_id;sensor_type;location;lat;lon;timestamp;P1;durP1;ratioP1;P2;durP2;ratioP2
64595;SDS011;51003;51.628;6.670;2022-10-31T00:00:30;18.13;;;8.67;;
64595;SDS011;51003;51.628;6.670;2022-10-31T00:02:56;14.63;;;8.73;;
64595;SDS011;51003;51.628;6.670;2022-10-31T00:05:21;19.43;;;9.60;;
64595;SDS011;51003;51.628;6.670;2022-10-31T00:07:51;15.40;;;8.70;;
64595;SDS011;51003;51.628;6.670;2022-10-31T00:10:17;17.53;;;8.73;;
64595;SDS011;51003;51.628;6.670;2022-10-31T00:12:43;21.03;;;9.47;;
64595;SDS011;51003;51.628;6.670;2022-10-31T00:15:08;13.20;;;8.93;;
64595;SDS011;51003;51.628;6.670;2022-10-31T00:17:34;16.67;;;8.87;;
64595;SDS011;51003;51.628;6.670;2022-10-31T00:20:01;15.57;;;9.17;;
64595;SDS011;51003;51.628;6.670;2022-10-31T00:22:26;14.93;;;9.00;;
64595;SDS011;51003;51.628;6.670;2022-10-31T00:24:52;14.37;;;8.37;;
64595;SDS011;51003;51.628;6.670;2022-10-31T00:27:17;18.77;;;9.30;;
64595;SDS011;51003;51.628;6.670;2022-10-31T00:29:43;14.73;;;9.00;;
64595;SDS011;51003;51.628;6.670;2022-10-31T00:32:08;18.77;;;8.33;;
64595;SDS011;51003;51.628;6.670;2022-10-31T00:34:33;26.80;;;8.63;;
64595;SDS011;51003;51.628;6.670;2022-10-31T00:36:59;16.63;;;8.50;;
64595;SDS011;51003;51.628;6.670;2022-10-31T00:39:24;14.83;;;8.53;;
64595;SDS011;51003;51.628;6.670;2022-10-31T00:41:49;15.73;;;9.27;;
64595;SDS011;51003;51.628;6.670;2022-10-31T00:44:15;16.00;;;9.17;;
64595;SDS011;51003;51.628;6.670;2022-10-31T00:46:40;15.30;;;9.00;;
64595;SDS011;51003;51.628;6.670;2022-10-31T00:49:06;14.13;;;9.10;;
64595;SDS011;51003;51.628;6.670;2022-10-31T00:51:31;14.30;;;9.20;;
64595;SDS011;51003;51.628;6.670;2022-10-31T00:53:56;14.73;;;9.10;;
64595;SDS011;51003;51.628;6.670;2022-10-31T00:56:22;19.20;;;9.60;;
64595;SDS011;51003;51.628;6.670;2022-10-31T00:58:47;20.00;;;8.70;;
64595;SDS011;51003;51.628;6.670;2022-10-31T01:01:12;14.57;;;9.20;;
64595;SDS011;51003;51.628;6.670;2022-10-31T01:03:38;16.30;;;9.33;;
64595;SDS011;51003;51.628;6.670;2022-10-31T01:06:10;16.17;;;9.40;;
64595;SDS011;51003;51.628;6.670;2022-10-31T01:08:37;17.23;;;9.33;;
64595;SDS011;51003;51.628;6.670;2022-10-31T01:11:10;14.27;;;8.67;;
64595;SDS011;51003;51.628;6.670;2022-10-31T01:13:38;18.50;;;8.73;;
64595;SDS011;51003;51.628;6.670;2022-10-31T01:16:03;12.73;;;8.53;;
64595;SDS011;51003;51.628;6.670;2022-10-31T01:18:30;26.60;;;8.77;;
64595;SDS011;51003;51.628;6.670;2022-10-31T01:21:06;16.13;;;9.40;;
64595;SDS011;51003;51.628;6.670;2022-10-31T01:23:31;13.80;;;8.50;;
64595;SDS011;51003;51.628;6.670;2022-10-31T01:28:33;12.67;;;8.87;;
64595;SDS011;51003;51.628;6.670;2022-10-31T01:31:00;14.63;;;8.37;;
64595;SDS011;51003;51.628;6.670;2022-10-31T01:33:27;19.13;;;7.70;;
64595;SDS011;51003;51.628;6.670;2022-10-31T01:35:52;16.40;;;8.63;;
64595;SDS011;51003;51.628;6.670;2022-10-31T01:38:17;13.17;;;8.37;;
64595;SDS011;51003;51.628;6.670;2022-10-31T01:40:43;14.13;;;8.47;;
64595;SDS011;51003;51.628;6.670;2022-10-31T01:43:12;15.00;;;8.17;;
64595;SDS011;51003;51.628;6.670;2022-10-31T01:45:38;12.10;;;8.40;;
64595;SDS011;51003;51.628;6.670;2022-10-31T01:48:03;17.87;;;8.67;;
64595;SDS011;51003;51.628;6.670;2022-10-31T01:50:34;14.10;;;7.80;;
64595;SDS011;51003;51.628;6.670;2022-10-31T01:53:01;13.80;;;8.40;;
64595;SDS011;51003;51.628;6.670;2022-10-31T01:55:28;15.13;;;8.07;;
64595;SDS011;51003;51.628;6.670;2022-10-31T01:57:57;18.73;;;8.90;;
64595;SDS011;51003;51.628;6.670;2022-10-31T02:00:24;13.50;;;8.00;;
64595;SDS011;51003;51.628;6.670;2022-10-31T02:02:50;16.27;;;8.70;;
64595;SDS011;51003;51.628;6.670;2022-10-31T02:05:17;15.40;;;8.07;;
64595;SDS011;51003;51.628;6.670;2022-10-31T02:07:52;19.40;;;9.70;;
64595;SDS011;51003;51.628;6.670;2022-10-31T02:10:21;16.03;;;8.30;;
64595;SDS011;51003;51.628;6.670;2022-10-31T02:12:48;16.70;;;9.00;;
64595;SDS011;51003;51.628;6.670;2022-10-31T02:15:15;14.87;;;9.00;;
64595;SDS011;51003;51.628;6.670;2022-10-31T02:17:40;12.67;;;8.47;;
64595;SDS011;51003;51.628;6.670;2022-10-31T02:36:15;15.80;;;8.53;;
64595;SDS011;51003;51.628;6.670;2022-10-31T02:44:09;15.00;;;8.40;;
64595;SDS011;51003;51.628;6.670;2022-10-31T02:46:55;13.10;;;7.83;;
64595;SDS011;51003;51.628;6.670;2022-10-31T02:51:58;11.97;;;7.20;;
64595;SDS011;51003;51.628;6.670;2022-10-31T02:54:24;11.17;;;7.83;;
64595;SDS011;51003;51.628;6.670;2022-10-31T02:56:52;16.20;;;7.80;;
64595;SDS011;51003;51.628;6.670;2022-10-31T02:59:29;15.70;;;8.13;;
64595;SDS011;51003;51.628;6.670;2022-10-31T03:07:34;10.93;;;7.03;;
64595;SDS011;51003;51.628;6.670;2022-10-31T03:10:09;12.40;;;7.17;;
64595;SDS011;51003;51.628;6.670;2022-10-31T03:12:39;14.00;;;7.60;;
64595;SDS011;51003;51.628;6.670;2022-10-31T03:17:59;12.20;;;7.20;;
64595;SDS011;51003;51.628;6.670;2022-10-31T03:20:50;12.43;;;7.80;;
64595;SDS011;51003;51.628;6.670;2022-10-31T03:23:21;9.73;;;7.33;;
64595;SDS011;51003;51.628;6.670;2022-10-31T03:25:48;12.67;;;7.97;;
64595;SDS011;51003;51.628;6.670;2022-10-31T03:28:14;14.10;;;9.07;;
64595;SDS011;51003;51.628;6.670;2022-10-31T03:30:42;11.73;;;7.83;;
64595;SDS011;51003;51.628;6.670;2022-10-31T03:33:16;12.43;;;7.10;;
64595;SDS011;51003;51.628;6.670;2022-10-31T03:35:44;14.20;;;8.50;;
64595;SDS011;51003;51.628;6.670;2022-10-31T03:38:11;16.87;;;8.30;;
64595;SDS011;51003;51.628;6.670;2022-10-31T03:40:37;14.83;;;7.93;;
64595;SDS011;51003;51.628;6.670;2022-10-31T03:43:10;14.97;;;9.13;;
64595;SDS011;51003;51.628;6.670;2022-10-31T03:45:41;14.00;;;8.43;;
64595;SDS011;51003;51.628;6.670;2022-10-31T03:48:08;18.23;;;9.57;;
64595;SDS011;51003;51.628;6.670;2022-10-31T03:51:22;17.63;;;9.83;;
64595;SDS011;51003;51.628;6.670;2022-10-31T03:56:13;21.77;;;10.00;;
64595;SDS011;51003;51.628;6.670;2022-10-31T03:58:45;18.47;;;10.00;;
64595;SDS011;51003;51.628;6.670;2022-10-31T04:01:14;17.57;;;9.83;;
64595;SDS011;51003;51.628;6.670;2022-10-31T04:03:41;16.13;;;9.30;;
64595;SDS011;51003;51.628;6.670;2022-10-31T04:06:08;15.83;;;9.40;;
64595;SDS011;51003;51.628;6.670;2022-10-31T04:08:36;23.30;;;10.40;;
64595;SDS011;51003;51.628;6.670;2022-10-31T09:05:43;37.37;;;17.80;;
64595;SDS011;51003;51.628;6.670;2022-10-31T09:08:09;34.60;;;16.73;;
64595;SDS011;51003;51.628;6.670;2022-10-31T09:10:35;32.70;;;16.17;;
64595;SDS011;51003;51.628;6.670;2022-10-31T09:13:02;34.03;;;15.90;;
64595;SDS011;51003;51.628;6.670;2022-10-31T09:15:31;27.53;;;15.77;;
64595;SDS011;51003;51.628;6.670;2022-10-31T09:17:57;28.83;;;15.40;;
64595;SDS011;51003;51.628;6.670;2022-10-31T09:20:22;25.73;;;13.77;;
64595;SDS011;51003;51.628;6.670;2022-10-31T09:22:54;28.70;;;15.30;;
64595;SDS011;51003;51.628;6.670;2022-10-31T09:25:20;26.63;;;15.30;;
64595;SDS011;51003;51.628;6.670;2022-10-31T09:27:46;36.90;;;14.67;;
64595;SDS011;51003;51.628;6.670;2022-10-31T09:30:11;24.60;;;14.53;;
64595;SDS011;51003;51.628;6.670;2022-10-31T09:32:37;27.63;;;14.97;;
64595;SDS011;51003;51.628;6.670;2022-10-31T09:35:02;22.30;;;14.77;;
64595;SDS011;51003;51.628;6.670;2022-10-31T09:37:28;32.70;;;15.80;;
64595;SDS011;51003;51.628;6.670;2022-10-31T09:39:53;27.60;;;15.93;;
64595;SDS011;51003;51.628;6.670;2022-10-31T09:45:09;27.40;;;15.33;;
64595;SDS011;51003;51.628;6.670;2022-10-31T09:47:43;27.87;;;15.40;;
64595;SDS011;51003;51.628;6.670;2022-10-31T09:50:48;29.97;;;15.90;;
64595;SDS011;51003;51.628;6.670;2022-10-31T09:56:04;27.53;;;15.70;;
64595;SDS011;51003;51.628;6.670;2022-10-31T09:58:32;22.83;;;15.07;;
64595;SDS011;51003;51.628;6.670;2022-10-31T10:18:13;26.00;;;15.43;;
64595;SDS011;51003;51.628;6.670;2022-10-31T10:28:41;26.83;;;15.37;;
64595;SDS011;51003;51.628;6.670;2022-10-31T10:36:32;28.00;;;15.17;;
64595;SDS011;51003;51.628;6.670;2022-10-31T10:39:02;27.70;;;15.90;;
64595;SDS011;51003;51.628;6.670;2022-10-31T10:41:32;24.37;;;14.47;;
64595;SDS011;51003;51.628;6.670;2022-10-31T10:43:58;29.80;;;16.60;;
64595;SDS011;51003;51.628;6.670;2022-10-31T10:54:37;28.73;;;16.17;;
64595;SDS011;51003;51.628;6.670;2022-10-31T10:59:42;29.20;;;17.20;;
64595;SDS011;51003;51.628;6.670;2022-10-31T11:02:18;30.50;;;16.77;;
64595;SDS011;51003;51.628;6.670;2022-10-31T11:04:45;30.53;;;16.67;;
64595;SDS011;51003;51.628;6.670;2022-10-31T11:07:14;38.13;;;17.17;;
64595;SDS011;51003;51.628;6.670;2022-10-31T11:09:39;24.97;;;16.03;;
64595;SDS011;51003;51.628;6.670;2022-10-31T11:12:08;40.23;;;16.70;;
64595;SDS011;51003;51.628;6.670;2022-10-31T11:14:53;27.60;;;16.87;;
64595;SDS011;51003;51.628;6.670;2022-10-31T11:17:28;31.23;;;16.90;;
64595;SDS011;51003;51.628;6.670;2022-10-31T11:20:03;28.33;;;16.10;;
64595;SDS011;51003;51.628;6.670;2022-10-31T11:22:30;31.73;;;17.10;;
64595;SDS011;51003;51.628;6.670;2022-10-31T11:24:56;29.57;;;16.60;;
64595;SDS011;51003;51.628;6.670;2022-10-31T11:27:22;36.60;;;17.40;;
64595;SDS011;51003;51.628;6.670;2022-10-31T11:29:49;29.33;;;17.80;;
64595;SDS011;51003;51.628;6.670;2022-10-31T11:32:19;27.80;;;16.33;;
64595;SDS011;51003;51.628;6.670;2022-10-31T11:34:47;30.77;;;17.07;;
64595;SDS011;51003;51.628;6.670;2022-10-31T11:37:16;29.80;;;16.87;;
64595;SDS011;51003;51.628;6.670;2022-10-31T11:39:44;40.23;;;18.00;;
64595;SDS011;51003;51.628;6.670;2022-10-31T11:42:18;30.00;;;17.60;;
64595;SDS011;51003;51.628;6.670;2022-10-31T11:44:48;29.13;;;17.40;;
64595;SDS011;51003;51.628;6.670;2022-10-31T11:47:15;37.50;;;17.73;;
64595;SDS011;51003;51.628;6.670;2022-10-31T11:49:42;32.80;;;16.97;;
64595;SDS011;51003;51.628;6.670;2022-10-31T11:54:41;36.10;;;16.93;;
64595;SDS011;51003;51.628;6.670;2022-10-31T11:58:01;29.33;;;16.77;;
64595;SDS011;51003;51.628;6.670;2022-10-31T12:00:23;34.87;;;18.63;;
64595;SDS011;51003;51.628;6.670;2022-10-31T12:02:50;28.30;;;16.23;;
64595;SDS011;51003;51.628;6.670;2022-10-31T12:05:26;32.53;;;16.43;;
64595;SDS011;51003;51.628;6.670;2022-10-31T12:07:57;34.03;;;17.50;;
64595;SDS011;51003;51.628;6.670;2022-10-31T12:10:24;33.93;;;17.00;;
64595;SDS011;51003;51.628;6.670;2022-10-31T12:13:04;28.10;;;16.40;;
64595;SDS011;51003;51.628;6.670;2022-10-31T12:15:37;39.07;;;16.20;;
64595;SDS011;51003;51.628;6.670;2022-10-31T12:18:16;31.30;;;17.50;;
64595;SDS011;51003;51.628;6.670;2022-10-31T12:37:17;35.83;;;18.13;;
64595;SDS011;51003;51.628;6.670;2022-10-31T12:45:07;35.53;;;18.40;;
64595;SDS011;51003;51.628;6.670;2022-10-31T12:47:44;34.97;;;18.30;;
64595;SDS011;51003;51.628;6.670;2022-10-31T12:58:31;35.80;;;16.63;;
64595;SDS011;51003;51.628;6.670;2022-10-31T13:01:02;33.53;;;17.30;;
64595;SDS011;51003;51.628;6.670;2022-10-31T13:03:34;36.27;;;18.03;;
64595;SDS011;51003;51.628;6.670;2022-10-31T13:06:05;40.23;;;17.30;;
64595;SDS011;51003;51.628;6.670;2022-10-31T13:08:36;26.83;;;15.23;;
64595;SDS011;51003;51.628;6.670;2022-10-31T13:16:23;32.47;;;16.37;;
64595;SDS011;51003;51.628;6.670;2022-10-31T13:19:00;29.90;;;14.83;;
64595;SDS011;51003;51.628;6.670;2022-10-31T13:24:01;29.27;;;15.10;;
64595;SDS011;51003;51.628;6.670;2022-10-31T13:26:40;32.43;;;14.73;;
64595;SDS011;51003;51.628;6.670;2022-10-31T13:31:45;26.50;;;13.40;;
64595;SDS011;51003;51.628;6.670;2022-10-31T13:37:39;23.27;;;13.07;;
64595;SDS011;51003;51.628;6.670;2022-10-31T13:40:05;24.00;;;13.30;;
64595;SDS011;51003;51.628;6.670;2022-10-31T13:42:59;36.80;;;12.73;;
64595;SDS011;51003;51.628;6.670;2022-10-31T13:45:30;24.77;;;12.10;;
